createdAt,value
2023-09-16T00:00:13.957Z,7.20
2023-09-16T00:03:07.440Z,7.00
2023-09-16T00:05:41.124Z,6.00
2023-09-16T00:08:13.626Z,6.20
2023-09-16T00:10:46.978Z,7.50
2023-09-16T00:13:19.572Z,6.50
2023-09-16T00:15:52.205Z,5.50
2023-09-16T00:18:24.653Z,6.00
2023-09-16T00:20:57.151Z,6.10
2023-09-16T00:23:29.731Z,5.40
2023-09-16T00:26:05.006Z,6.80
2023-09-16T00:28:38.060Z,7.50
2023-09-16T00:31:12.939Z,5.10
2023-09-16T00:33:45.378Z,6.30
2023-09-16T00:36:17.769Z,5.40
2023-09-16T00:41:21.379Z,7.60
2023-09-16T00:43:54.008Z,4.70
2023-09-16T00:46:27.747Z,7.90
2023-09-16T00:49:00.298Z,5.20
2023-09-16T00:51:32.798Z,7.00
2023-09-16T00:54:05.704Z,7.10
2023-09-16T00:56:39.599Z,6.20
2023-09-16T00:59:12.350Z,4.50
2023-09-16T01:01:51.300Z,7.00
2023-09-16T01:04:24.838Z,5.40
2023-09-16T01:06:57.457Z,6.90
2023-09-16T01:09:29.965Z,5.50
2023-09-16T01:12:02.431Z,4.90
2023-09-16T01:14:35.589Z,5.20
2023-09-16T01:17:12.098Z,4.60
2023-09-16T01:19:50.082Z,6.50
2023-09-16T01:22:23.137Z,4.70
2023-09-16T01:24:57.751Z,7.60
2023-09-16T01:27:30.326Z,6.90
2023-09-16T01:30:03.809Z,4.60
2023-09-16T01:32:44.458Z,6.50
2023-09-16T01:35:18.572Z,6.50
2023-09-16T01:37:54.192Z,6.40
2023-09-16T01:40:27.637Z,7.20
2023-09-16T01:43:04.359Z,7.10
2023-09-16T01:45:45.690Z,5.00
2023-09-16T01:48:18.294Z,4.50
2023-09-16T01:50:51.236Z,7.30
2023-09-16T01:53:26.824Z,5.00
2023-09-16T01:55:59.302Z,5.20
2023-09-16T02:01:02.607Z,6.40
2023-09-16T02:06:07.471Z,6.10
2023-09-16T02:08:39.841Z,5.70
2023-09-16T02:13:42.856Z,5.80
2023-09-16T02:16:15.986Z,4.50
2023-09-16T02:18:48.718Z,6.10
2023-09-16T02:21:22.957Z,5.80
2023-09-16T02:23:55.435Z,6.20
2023-09-16T02:26:27.926Z,4.30
2023-09-16T02:29:00.434Z,6.20
2023-09-16T02:34:04.103Z,6.10
2023-09-16T02:36:37.829Z,6.60
2023-09-16T02:39:10.438Z,5.10
2023-09-16T02:41:42.805Z,6.50
2023-09-16T02:44:15.434Z,5.30
2023-09-16T02:49:18.469Z,5.80
2023-09-16T02:51:51.182Z,5.30
2023-09-16T02:54:23.598Z,5.60
2023-09-16T02:59:26.780Z,5.50
2023-09-16T03:01:59.452Z,3.80
2023-09-16T03:04:31.924Z,4.20
2023-09-16T03:09:35.277Z,6.40
2023-09-16T03:12:10.549Z,5.70
2023-09-16T03:14:42.920Z,5.60
2023-09-16T03:19:46.518Z,4.50
2023-09-16T03:22:18.972Z,4.10
2023-09-16T03:27:22.488Z,4.00
2023-09-16T03:29:54.951Z,5.20
2023-09-16T03:35:00.997Z,3.90
2023-09-16T03:37:33.303Z,4.00
2023-09-16T03:42:40.314Z,4.90
2023-09-16T03:45:26.942Z,4.90
2023-09-16T03:48:01.289Z,6.10
2023-09-16T03:53:11.138Z,6.30
2023-09-16T03:55:43.951Z,5.30
2023-09-16T03:58:16.405Z,4.50
2023-09-16T04:00:49.236Z,4.80
2023-09-16T04:03:21.696Z,3.50
2023-09-16T04:08:37.960Z,6.30
2023-09-16T04:11:14.477Z,5.80
2023-09-16T04:13:47.052Z,5.00
2023-09-16T04:16:19.768Z,6.20
2023-09-16T04:18:54.624Z,3.20
2023-09-16T04:21:27.811Z,5.60
2023-09-16T04:24:00.188Z,6.50
2023-09-16T04:29:04.052Z,4.50
2023-09-16T04:31:36.682Z,3.40
2023-09-16T04:34:09.040Z,5.30
2023-09-16T04:39:13.022Z,6.70
2023-09-16T04:44:16.020Z,3.90
2023-09-16T04:46:48.625Z,5.00
2023-09-16T04:49:21.195Z,3.20
2023-09-16T04:51:55.271Z,4.00
2023-09-16T04:54:27.925Z,8.30
2023-09-16T04:59:33.894Z,9.30
2023-09-16T05:02:06.527Z,4.30
2023-09-16T05:04:39.054Z,4.50
2023-09-16T05:09:42.426Z,4.80
2023-09-16T05:12:14.936Z,5.50
2023-09-16T05:17:20.157Z,4.50
2023-09-16T05:19:52.675Z,6.20
2023-09-16T05:24:55.678Z,5.20
2023-09-16T05:29:58.921Z,4.10
2023-09-16T05:35:02.183Z,5.60
2023-09-16T05:37:34.900Z,4.10
2023-09-16T05:40:08.770Z,6.30
2023-09-16T05:42:41.469Z,5.20
2023-09-16T05:45:14.545Z,4.60
2023-09-16T05:47:49.717Z,7.30
2023-09-16T05:50:22.484Z,6.40
2023-09-16T05:52:54.974Z,5.80
2023-09-16T05:55:27.334Z,7.00
2023-09-16T05:57:59.959Z,7.20
2023-09-16T06:00:32.386Z,6.70
2023-09-16T06:03:05.017Z,8.40
2023-09-16T06:05:37.646Z,8.70
2023-09-16T06:08:11.945Z,6.60
2023-09-16T06:10:44.236Z,6.90
2023-09-16T06:13:16.772Z,6.60
2023-09-16T06:15:49.363Z,11.20
2023-09-16T06:18:21.952Z,9.10
2023-09-16T06:20:54.645Z,5.60
2023-09-16T06:23:29.892Z,14.40
2023-09-16T06:26:03.503Z,9.20
2023-09-16T06:28:36.097Z,6.60
2023-09-16T06:31:10.964Z,5.80
2023-09-16T06:33:43.578Z,8.40
2023-09-16T06:36:18.974Z,6.10
2023-09-16T06:38:51.557Z,8.70
2023-09-16T06:41:25.635Z,7.80
2023-09-16T06:43:58.302Z,9.30
2023-09-16T06:46:31.056Z,6.70
2023-09-16T06:49:03.490Z,7.60
2023-09-16T06:54:09.441Z,6.00
2023-09-16T06:56:41.936Z,9.10
2023-09-16T06:59:14.633Z,5.60
2023-09-16T07:01:50.924Z,7.90
2023-09-16T07:04:27.845Z,7.50
2023-09-16T07:07:01.685Z,8.10
2023-09-16T07:12:09.737Z,7.30
2023-09-16T07:14:42.859Z,6.30
2023-09-16T07:17:15.127Z,7.40
2023-09-16T07:19:49.839Z,7.10
2023-09-16T07:22:26.601Z,7.00
2023-09-16T07:25:04.057Z,8.60
2023-09-16T07:27:38.394Z,12.30
2023-09-16T07:30:12.529Z,8.40
2023-09-16T07:32:47.054Z,10.30
2023-09-16T07:35:19.577Z,9.70
2023-09-16T07:40:22.863Z,7.80
2023-09-16T07:42:57.591Z,8.20
2023-09-16T07:45:34.825Z,10.50
2023-09-16T07:48:10.627Z,9.30
2023-09-16T07:50:43.360Z,9.20
2023-09-16T07:53:17.075Z,10.60
2023-09-16T07:55:49.461Z,8.90
2023-09-16T08:00:55.792Z,7.60
2023-09-16T08:03:33.378Z,10.00
2023-09-16T08:06:06.088Z,9.10
2023-09-16T08:08:38.499Z,10.90
2023-09-16T08:11:12.594Z,7.30
2023-09-16T08:13:45.094Z,7.80
2023-09-16T08:16:20.050Z,7.90
2023-09-16T08:18:53.136Z,9.80
2023-09-16T08:21:26.232Z,9.80
2023-09-16T08:24:02.518Z,9.20
2023-09-16T08:26:35.314Z,8.40
2023-09-16T08:29:11.322Z,7.70
2023-09-16T08:31:45.657Z,9.50
2023-09-16T08:34:18.356Z,9.80
2023-09-16T08:36:50.878Z,8.80
2023-09-16T08:39:23.594Z,10.10
2023-09-16T08:42:02.203Z,11.30
2023-09-16T08:44:41.442Z,8.20
2023-09-16T08:47:21.614Z,8.30
2023-09-16T08:49:58.447Z,8.20
2023-09-16T08:52:36.309Z,8.20
2023-09-16T08:55:15.806Z,11.50
2023-09-16T08:57:50.837Z,9.00
2023-09-16T09:00:28.738Z,12.00
2023-09-16T09:03:03.720Z,8.80
2023-09-16T09:05:38.817Z,9.00
2023-09-16T09:08:13.965Z,10.90
2023-09-16T09:10:46.625Z,7.60
2023-09-16T09:13:21.903Z,9.00
2023-09-16T09:16:01.701Z,9.90
2023-09-16T09:18:34.912Z,8.30
2023-09-16T09:21:11.351Z,8.90
2023-09-16T09:23:47.395Z,8.50
2023-09-16T09:26:20.067Z,7.50
2023-09-16T09:28:54.984Z,12.40
2023-09-16T09:31:27.671Z,12.20
2023-09-16T09:34:03.699Z,10.80
2023-09-16T09:36:43.491Z,12.00
2023-09-16T09:39:16.012Z,11.60
2023-09-16T09:41:50.892Z,6.80
2023-09-16T09:44:24.879Z,10.10
2023-09-16T09:46:57.345Z,15.20
2023-09-16T09:49:30.711Z,12.90
2023-09-16T09:52:05.968Z,8.60
2023-09-16T09:54:40.958Z,9.20
2023-09-16T09:57:17.432Z,13.10
2023-09-16T09:59:52.341Z,9.90
2023-09-16T10:02:29.351Z,9.80
2023-09-16T10:05:04.875Z,12.20
2023-09-16T10:07:54.718Z,8.80
2023-09-16T10:10:28.977Z,11.10
2023-09-16T10:13:22.441Z,10.70
2023-09-16T10:16:02.909Z,8.20
2023-09-16T10:18:39.259Z,13.30
2023-09-16T10:21:16.354Z,8.60
2023-09-16T10:23:51.367Z,10.10
2023-09-16T10:26:31.738Z,11.50
2023-09-16T10:29:08.762Z,10.90
2023-09-16T10:31:45.216Z,11.80
2023-09-16T10:34:26.241Z,7.70
2023-09-16T10:37:02.976Z,7.50
2023-09-16T10:39:39.240Z,10.10
2023-09-16T10:42:18.234Z,8.60
2023-09-16T10:44:52.839Z,14.20
2023-09-16T10:47:28.198Z,10.80
2023-09-16T10:50:04.140Z,11.80
2023-09-16T10:52:43.889Z,11.40
2023-09-16T11:01:31.791Z,10.60
2023-09-16T11:04:12.041Z,10.50
2023-09-16T11:06:48.973Z,10.80
2023-09-16T11:09:25.905Z,9.50
2023-09-16T11:11:58.843Z,10.10
2023-09-16T11:14:31.611Z,10.30
2023-09-16T11:17:15.953Z,11.90
2023-09-16T11:19:49.086Z,9.60
2023-09-16T11:22:21.615Z,12.00
2023-09-16T11:24:57.467Z,8.60
2023-09-16T11:27:30.492Z,12.50
2023-09-16T11:30:14.142Z,11.00
2023-09-16T11:33:25.940Z,11.00
2023-09-16T11:36:13.469Z,10.30
2023-09-16T11:39:00.361Z,14.90
2023-09-16T11:41:32.996Z,10.70
2023-09-16T11:44:07.468Z,10.50
2023-09-16T11:46:40.788Z,10.90
2023-09-16T11:49:16.867Z,10.20
2023-09-16T11:51:52.599Z,9.50
2023-09-16T11:54:26.127Z,9.80
2023-09-16T11:56:59.565Z,13.80
2023-09-16T11:59:32.993Z,12.00
2023-09-16T12:02:05.865Z,10.50
2023-09-16T12:04:38.732Z,8.50
2023-09-16T12:07:15.212Z,11.00
2023-09-16T12:10:02.068Z,9.80
2023-09-16T12:12:37.153Z,8.10
2023-09-16T12:15:14.346Z,10.40
2023-09-16T12:17:50.411Z,9.80
2023-09-16T12:20:29.420Z,9.00
2023-09-16T12:23:09.058Z,10.10
2023-09-16T12:25:47.102Z,8.40
2023-09-16T12:28:30.361Z,11.70
2023-09-16T12:31:04.371Z,10.00
2023-09-16T12:33:56.178Z,9.60
2023-09-16T12:36:41.083Z,9.20
2023-09-16T12:39:20.098Z,14.10
2023-09-16T12:42:16.472Z,10.70
2023-09-16T12:44:54.645Z,11.60
2023-09-16T12:47:32.858Z,8.90
2023-09-16T12:50:07.972Z,9.50
2023-09-16T12:52:48.645Z,8.40
2023-09-16T12:55:32.733Z,8.10
2023-09-16T12:58:15.975Z,8.90
2023-09-16T13:01:02.496Z,9.40
2023-09-16T13:03:42.939Z,8.20
2023-09-16T13:06:20.319Z,11.10
2023-09-16T13:08:55.825Z,9.10
2023-09-16T13:11:44.544Z,9.10
2023-09-16T13:14:24.125Z,8.00
2023-09-16T13:17:00.245Z,9.70
2023-09-16T13:19:36.089Z,8.60
2023-09-16T13:22:18.450Z,12.40
2023-09-16T13:27:40.510Z,11.20
2023-09-16T13:30:26.487Z,9.00
2023-09-16T13:33:00.334Z,8.90
2023-09-16T13:35:38.387Z,8.60
2023-09-16T13:38:12.122Z,13.70
2023-09-16T13:40:51.530Z,10.80
2023-09-16T13:43:24.109Z,9.90
2023-09-16T13:45:57.690Z,14.60
2023-09-16T13:48:32.951Z,11.40
2023-09-16T13:51:05.480Z,15.70
2023-09-16T13:53:38.131Z,11.10
2023-09-16T13:56:10.558Z,12.40
2023-09-16T13:58:44.685Z,10.20
2023-09-16T14:01:17.377Z,11.90
2023-09-16T14:03:50.223Z,11.60
2023-09-16T14:06:24.004Z,11.90
2023-09-16T14:08:56.387Z,13.40
2023-09-16T14:11:28.881Z,8.80
2023-09-16T14:14:01.646Z,10.10
2023-09-16T14:16:35.417Z,11.20
2023-09-16T14:19:08.901Z,10.90
2023-09-16T14:21:42.237Z,13.40
2023-09-16T14:24:14.926Z,12.00
2023-09-16T14:26:47.296Z,9.90
2023-09-16T14:29:19.737Z,11.90
2023-09-16T14:31:52.505Z,10.50
2023-09-16T14:34:24.960Z,9.10
2023-09-16T14:36:57.408Z,11.30
2023-09-16T14:39:29.983Z,12.40
2023-09-16T14:42:02.577Z,12.30
2023-09-16T14:44:37.286Z,11.50
2023-09-16T14:47:09.995Z,14.20
2023-09-16T14:49:42.619Z,14.30
2023-09-16T14:52:15.731Z,11.80
2023-09-16T14:54:48.208Z,11.10
2023-09-16T14:57:20.912Z,12.40
2023-09-16T15:02:24.127Z,11.40
2023-09-16T15:04:58.252Z,14.40
2023-09-16T15:07:30.777Z,14.90
2023-09-16T15:10:03.457Z,12.90
2023-09-16T15:12:36.122Z,11.20
2023-09-16T15:15:11.303Z,16.20
2023-09-16T15:17:43.969Z,11.00
2023-09-16T15:20:16.803Z,14.10
2023-09-16T15:22:49.418Z,13.20
2023-09-16T15:25:22.070Z,13.30
2023-09-16T15:27:55.400Z,15.40
2023-09-16T15:30:28.560Z,18.30
2023-09-16T15:33:01.070Z,16.50
2023-09-16T15:35:36.373Z,13.80
2023-09-16T15:38:09.070Z,16.90
2023-09-16T15:40:41.474Z,15.70
2023-09-16T15:45:44.422Z,17.00
2023-09-16T15:50:50.719Z,13.70
2023-09-16T15:53:23.486Z,16.40
2023-09-16T15:55:56.246Z,14.00
2023-09-16T15:58:28.866Z,15.70
2023-09-16T16:01:01.441Z,14.30
2023-09-16T16:03:35.883Z,14.70
2023-09-16T16:06:08.596Z,12.40
2023-09-16T16:08:42.984Z,14.30
2023-09-16T16:11:15.525Z,15.70
2023-09-16T16:13:48.408Z,15.10
2023-09-16T16:16:21.491Z,14.70
2023-09-16T16:18:54.279Z,13.40
2023-09-16T16:21:27.228Z,16.50
2023-09-16T16:23:59.739Z,14.50
2023-09-16T16:26:33.201Z,13.90
2023-09-16T16:29:05.767Z,16.00
2023-09-16T16:31:38.280Z,15.30
2023-09-16T16:34:10.880Z,13.80
2023-09-16T16:36:44.414Z,11.80
2023-09-16T16:39:16.808Z,13.30
2023-09-16T16:41:50.455Z,16.60
2023-09-16T16:44:22.968Z,13.50
2023-09-16T16:47:00.748Z,15.30
2023-09-16T16:49:34.133Z,12.80
2023-09-16T16:52:06.942Z,13.00
2023-09-16T16:54:39.496Z,12.70
2023-09-16T16:57:11.784Z,13.20
2023-09-16T16:59:44.914Z,12.00
2023-09-16T17:02:17.533Z,13.10
2023-09-16T17:04:51.895Z,13.40
2023-09-16T17:07:24.582Z,13.90
2023-09-16T17:09:57.529Z,10.70
2023-09-16T17:12:30.150Z,13.00
2023-09-16T17:15:02.581Z,10.80
2023-09-16T17:17:35.066Z,9.80
2023-09-16T17:20:10.027Z,12.80
2023-09-16T17:22:42.640Z,10.60
2023-09-16T17:25:17.246Z,9.10
2023-09-16T17:27:49.705Z,11.70
2023-09-16T17:32:53.788Z,10.50
2023-09-16T17:35:26.332Z,10.70
2023-09-16T17:37:59.050Z,10.20
2023-09-16T17:40:31.744Z,12.10
2023-09-16T17:43:04.587Z,12.80
2023-09-16T17:45:37.135Z,12.90
2023-09-16T17:48:09.804Z,11.20
2023-09-16T17:50:42.379Z,12.00
2023-09-16T17:53:14.813Z,13.60
2023-09-16T17:55:47.501Z,11.10
2023-09-16T17:58:20.476Z,11.50
2023-09-16T18:00:53.576Z,13.90
2023-09-16T18:03:26.212Z,10.70
2023-09-16T18:05:58.734Z,14.10
2023-09-16T18:08:35.758Z,12.40
2023-09-16T18:11:08.525Z,14.10
2023-09-16T18:13:41.084Z,12.40
2023-09-16T18:16:15.462Z,10.20
2023-09-16T18:18:48.481Z,11.60
2023-09-16T18:21:21.408Z,12.00
2023-09-16T18:23:54.392Z,11.50
2023-09-16T18:26:27.117Z,11.60
2023-09-16T18:29:00.436Z,12.80
2023-09-16T18:31:32.961Z,10.60
2023-09-16T18:34:05.844Z,13.80
2023-09-16T18:36:38.655Z,11.20
2023-09-16T18:39:11.596Z,11.40
2023-09-16T18:41:44.431Z,12.90
2023-09-16T18:44:17.642Z,11.40
2023-09-16T18:46:51.651Z,13.10
2023-09-16T18:49:28.556Z,11.90
2023-09-16T18:52:01.492Z,12.10
2023-09-16T18:54:35.368Z,10.10
2023-09-16T18:57:09.370Z,15.50
2023-09-16T18:59:42.029Z,14.50
2023-09-16T19:02:15.037Z,14.00
2023-09-16T19:04:47.817Z,13.70
2023-09-16T19:07:23.448Z,14.00
2023-09-16T19:09:57.976Z,13.30
2023-09-16T19:12:30.329Z,11.90
2023-09-16T19:15:04.346Z,11.60
2023-09-16T19:17:36.887Z,11.90
2023-09-16T19:20:12.226Z,13.00
2023-09-16T19:22:44.690Z,15.30
2023-09-16T19:27:48.682Z,16.50
2023-09-16T19:32:52.914Z,13.30
2023-09-16T19:35:27.299Z,13.70
2023-09-16T19:37:59.852Z,11.10
2023-09-16T19:40:32.330Z,13.90
2023-09-16T19:43:05.362Z,14.20
2023-09-16T19:45:38.038Z,11.90
2023-09-16T19:48:10.637Z,14.30
2023-09-16T19:50:44.251Z,12.10
2023-09-16T19:53:17.286Z,13.70
2023-09-16T19:55:50.257Z,15.40
2023-09-16T19:58:22.894Z,11.60
2023-09-16T20:01:01.511Z,11.80
2023-09-16T20:03:35.035Z,13.50
2023-09-16T20:06:14.974Z,15.40
2023-09-16T20:08:47.652Z,13.70
2023-09-16T20:11:26.998Z,15.00
2023-09-16T20:14:05.545Z,13.80
2023-09-16T20:16:41.600Z,15.20
2023-09-16T20:19:21.430Z,13.90
2023-09-16T20:21:59.135Z,16.50
2023-09-16T20:24:34.541Z,17.50
2023-09-16T20:27:10.380Z,14.70
2023-09-16T20:29:43.312Z,15.00
2023-09-16T20:32:20.316Z,14.00
2023-09-16T20:34:59.864Z,14.90
2023-09-16T20:37:44.126Z,11.70
2023-09-16T20:40:23.874Z,15.70
2023-09-16T20:42:56.486Z,15.00
2023-09-16T20:45:31.667Z,12.40
2023-09-16T20:48:07.474Z,13.70
2023-09-16T20:50:42.859Z,11.90
2023-09-16T20:53:16.151Z,14.90
2023-09-16T20:55:55.336Z,14.80
2023-09-16T20:58:27.901Z,12.70
2023-09-16T21:01:00.841Z,13.30
2023-09-16T21:03:40.819Z,12.60
2023-09-16T21:06:19.028Z,13.30
2023-09-16T21:08:52.060Z,11.70
2023-09-16T21:11:27.833Z,10.50
2023-09-16T21:14:08.869Z,12.70
2023-09-16T21:16:43.194Z,12.30
2023-09-16T21:19:15.882Z,11.10
2023-09-16T21:21:54.521Z,11.90
2023-09-16T21:24:30.229Z,11.70
2023-09-16T21:27:05.769Z,11.90
2023-09-16T21:29:42.594Z,10.90
2023-09-16T21:32:15.473Z,10.30
2023-09-16T21:34:48.439Z,10.30
2023-09-16T21:37:23.412Z,12.00
2023-09-16T21:39:56.535Z,10.80
2023-09-16T21:42:34.099Z,10.00
2023-09-16T21:45:10.928Z,10.60
2023-09-16T21:47:43.714Z,9.50
2023-09-16T21:50:16.448Z,10.00
2023-09-16T21:52:50.519Z,14.30
2023-09-16T21:55:26.064Z,11.40
2023-09-16T21:57:58.790Z,11.20
2023-09-16T22:00:35.963Z,13.30
2023-09-16T22:03:09.348Z,10.70
2023-09-16T22:05:42.910Z,11.60
2023-09-16T22:08:15.368Z,10.30
2023-09-16T22:10:48.071Z,11.30
2023-09-16T22:13:20.723Z,9.80
2023-09-16T22:15:54.540Z,10.10
2023-09-16T22:18:27.049Z,13.60
2023-09-16T22:23:30.406Z,9.10
2023-09-16T22:26:08.342Z,10.30
2023-09-16T22:28:41.164Z,10.40
2023-09-16T22:31:17.297Z,10.30
2023-09-16T22:33:50.388Z,9.30
2023-09-16T22:36:25.262Z,10.10
2023-09-16T22:38:58.180Z,11.90
2023-09-16T22:41:30.847Z,10.10
2023-09-16T22:44:04.156Z,9.00
2023-09-16T22:46:37.526Z,10.90
2023-09-16T22:49:10.608Z,11.20
2023-09-16T22:51:43.260Z,10.50
2023-09-16T22:56:46.504Z,10.40
2023-09-16T23:01:49.991Z,10.40
2023-09-16T23:04:22.630Z,13.40
2023-09-16T23:06:55.963Z,10.10
2023-09-16T23:09:28.694Z,10.10
2023-09-16T23:12:01.863Z,11.70
2023-09-16T23:14:35.192Z,12.60
2023-09-16T23:17:08.468Z,10.90
2023-09-16T23:19:42.394Z,11.10
2023-09-16T23:22:15.107Z,11.60
2023-09-16T23:24:49.930Z,10.70
2023-09-16T23:27:22.563Z,17.20
2023-09-16T23:32:25.974Z,10.70
2023-09-16T23:34:58.437Z,9.70
2023-09-16T23:40:01.907Z,10.70
2023-09-16T23:42:34.739Z,11.70
2023-09-16T23:45:08.810Z,10.90
2023-09-16T23:47:41.344Z,10.50
2023-09-16T23:50:14.389Z,11.20
2023-09-16T23:52:46.909Z,10.10
2023-09-16T23:55:19.618Z,13.90
2023-09-16T23:57:52.311Z,11.00
